Time;durP1;ratioP1;P1;durP2;ratioP2;P2;SDS_P1;SDS_P2;PMS_P1;PMS_P2;Temp;Humidity;BMP_temperature;BMP_pressure;BME280_temperature;BME280_humidity;BME280_pressure;Samples;Min_cycle;Max_cycle;Signal;HPM_P1;HPM_P2
2021/09/22 00:00:24;;;;;;;3.02;2.17;;;15.10;85.80;;;;;;1875486;76;21007;-49
2021/09/22 00:02:53;;;;;;;3.15;2.42;;;15.10;86.10;;;;;;1875677;76;21089;-50
2021/09/22 00:05:23;;;;;;;4.25;2.10;;;15.10;86.10;;;;;;1875648;76;21136;-47
2021/09/22 00:07:52;;;;;;;5.15;2.40;;;15.10;85.90;;;;;;1875533;76;21527;-49
2021/09/22 00:10:22;;;;;;;4.55;2.37;;;15.10;86.00;;;;;;1875545;76;21160;-50
2021/09/22 00:12:51;;;;;;;2.80;2.50;;;15.10;86.10;;;;;;1875538;76;21015;-48
2021/09/22 00:15:23;;;;;;;3.62;2.52;;;15.10;86.00;;;;;;1875587;76;21102;-49
2021/09/22 00:17:53;;;;;;;3.15;2.37;;;15.10;86.10;;;;;;1875631;76;21039;-49
2021/09/22 00:20:25;;;;;;;2.67;2.47;;;15.20;86.30;;;;;;1875761;76;21039;-49
2021/09/22 00:22:56;;;;;;;5.08;3.00;;;15.20;86.10;;;;;;1875701;76;21090;-50
2021/09/22 00:25:28;;;;;;;4.17;2.17;;;15.20;86.10;;;;;;1875637;76;21031;-50
2021/09/22 00:27:57;;;;;;;2.15;1.90;;;15.20;86.00;;;;;;1875707;76;21015;-48
2021/09/22 00:30:27;;;;;;;6.12;2.05;;;15.10;85.80;;;;;;1875758;76;21034;-50
2021/09/22 00:32:56;;;;;;;2.45;2.10;;;15.10;85.50;;;;;;1875561;76;21039;-50
2021/09/22 00:35:25;;;;;;;2.47;2.27;;;15.10;85.20;;;;;;1875683;76;21031;-50
2021/09/22 00:37:55;;;;;;;2.30;2.10;;;15.00;85.20;;;;;;1875504;76;21089;-50
2021/09/22 00:40:24;;;;;;;5.87;2.20;;;15.00;85.60;;;;;;1875434;76;21126;-51
2021/09/22 00:42:54;;;;;;;5.97;2.30;;;15.00;85.50;;;;;;1875516;76;21035;-49
2021/09/22 00:45:23;;;;;;;2.52;1.95;;;15.00;85.70;;;;;;1875508;76;21014;-49
2021/09/22 00:47:53;;;;;;;2.90;2.00;;;15.00;85.20;;;;;;1875642;76;21043;-49
2021/09/22 00:50:39;;;;;;;3.08;1.80;;;15.00;84.80;;;;;;1874650;76;21147;-51
2021/09/22 00:53:10;;;;;;;3.37;2.40;;;15.00;84.70;;;;;;1875546;76;21043;-49
2021/09/22 00:55:40;;;;;;;3.83;1.90;;;14.90;84.50;;;;;;1875460;76;21097;-49
2021/09/22 00:58:10;;;;;;;6.35;1.82;;;14.90;84.90;;;;;;1875557;76;21121;-48
2021/09/22 01:00:40;;;;;;;3.02;2.25;;;14.90;85.20;;;;;;1875459;76;21096;-50
2021/09/22 01:03:09;;;;;;;2.15;1.90;;;14.90;85.40;;;;;;1875695;76;21035;-50
2021/09/22 01:05:40;;;;;;;2.10;1.80;;;14.90;85.20;;;;;;1875911;76;21206;-50
2021/09/22 01:08:10;;;;;;;6.12;2.22;;;14.90;85.20;;;;;;1876333;76;21062;-49
2021/09/22 01:10:40;;;;;;;4.83;2.12;;;15.00;85.40;;;;;;1876215;76;21145;-50
2021/09/22 01:13:09;;;;;;;2.58;1.98;;;15.10;85.40;;;;;;1876303;76;21038;-50
2021/09/22 01:15:43;;;;;;;2.90;1.82;;;15.10;85.10;;;;;;1876191;76;21031;-49
2021/09/22 01:18:16;;;;;;;2.85;1.67;;;15.10;85.00;;;;;;1876317;76;21446;-50
2021/09/22 01:20:46;;;;;;;2.90;1.70;;;15.10;84.90;;;;;;1876249;76;21038;-50
2021/09/22 01:23:16;;;;;;;5.72;2.10;;;15.10;84.80;;;;;;1876281;76;21086;-50
2021/09/22 01:25:48;;;;;;;2.55;1.62;;;15.10;84.80;;;;;;1876324;76;21035;-47
2021/09/22 01:28:19;;;;;;;4.37;1.57;;;15.10;84.50;;;;;;1876320;76;21059;-50
2021/09/22 01:30:51;;;;;;;3.70;1.90;;;15.10;84.50;;;;;;1876260;76;21070;-49
2021/09/22 01:33:23;;;;;;;2.55;1.70;;;15.00;84.50;;;;;;1876346;76;21121;-50
2021/09/22 01:35:54;;;;;;;1.50;1.40;;;15.00;84.60;;;;;;1874794;76;21450;-50
2021/09/22 01:38:27;;;;;;;2.47;1.90;;;15.00;84.70;;;;;;1875906;76;21117;-50
2021/09/22 01:41:15;;;;;;;2.40;2.20;;;15.00;84.30;;;;;;1875341;76;21064;-50
2021/09/22 01:43:46;;;;;;;2.10;1.90;;;15.00;84.60;;;;;;1874432;76;21101;-47
2021/09/22 01:46:17;;;;;;;3.02;1.90;;;15.00;84.90;;;;;;1874816;76;21038;-49
2021/09/22 01:48:46;;;;;;;3.58;1.75;;;15.00;85.00;;;;;;1876229;76;21156;-47
2021/09/22 01:51:16;;;;;;;3.42;1.90;;;15.00;85.00;;;;;;1876276;76;21035;-49
2021/09/22 01:54:02;;;;;;;1.70;1.60;;;15.00;84.60;;;;;;1874702;76;21089;-52
2021/09/22 01:56:32;;;;;;;1.90;1.57;;;15.00;84.40;;;;;;1876188;76;21047;-46
2021/09/22 01:59:03;;;;;;;2.98;1.30;;;15.00;84.10;;;;;;1876008;76;21097;-49
2021/09/22 02:01:34;;;;;;;2.52;1.45;;;14.90;83.20;;;;;;1873364;75;21425;-48
2021/09/22 02:04:05;;;;;;;1.92;1.50;;;14.90;83.60;;;;;;1874692;76;21042;-51
2021/09/22 02:06:35;;;;;;;2.17;1.42;;;14.80;84.00;;;;;;1874903;75;21152;-48
2021/09/22 02:09:06;;;;;;;1.55;1.42;;;14.80;84.00;;;;;;1876280;76;21144;-47
2021/09/22 02:11:40;;;;;;;6.17;1.70;;;14.80;84.50;;;;;;1875683;76;21070;-51
2021/09/22 02:14:11;;;;;;;1.65;1.10;;;14.80;83.90;;;;;;1875998;76;21050;-47
2021/09/22 02:16:42;;;;;;;1.45;1.30;;;14.80;84.00;;;;;;1875013;76;21096;-48
2021/09/22 02:19:16;;;;;;;1.57;1.27;;;14.80;83.90;;;;;;1875391;76;21163;-50
2021/09/22 02:21:59;;;;;;;6.37;1.70;;;14.80;83.90;;;;;;1873276;76;21125;-49
2021/09/22 02:24:30;;;;;;;1.67;1.52;;;14.80;83.10;;;;;;1875232;75;21034;-50
2021/09/22 02:27:00;;;;;;;1.92;1.30;;;14.70;82.90;;;;;;1876228;76;21148;-49
2021/09/22 02:29:29;;;;;;;2.92;1.50;;;14.70;82.70;;;;;;1876293;76;21051;-49
2021/09/22 02:31:58;;;;;;;1.98;1.45;;;14.70;82.70;;;;;;1876150;76;21043;-49
2021/09/22 02:34:29;;;;;;;1.92;1.50;;;14.60;82.40;;;;;;1876213;76;21051;-49
2021/09/22 02:37:00;;;;;;;2.05;1.52;;;14.60;82.60;;;;;;1876078;76;21517;-50
2021/09/22 02:39:31;;;;;;;3.83;1.85;;;14.60;82.40;;;;;;1875759;76;21074;-49
2021/09/22 02:42:01;;;;;;;3.37;2.25;;;14.60;82.50;;;;;;1849270;76;21056;-49
2021/09/22 02:44:31;;;;;;;4.72;2.17;;;14.60;82.70;;;;;;1876097;76;21114;-50
2021/09/22 02:47:00;;;;;;;3.10;1.80;;;14.60;82.40;;;;;;1876089;76;21047;-50
2021/09/22 02:49:30;;;;;;;3.27;1.82;;;14.70;82.60;;;;;;1876184;76;21039;-49
2021/09/22 02:52:01;;;;;;;7.55;2.40;;;14.70;82.80;;;;;;1876057;76;21485;-50
2021/09/22 02:54:30;;;;;;;3.72;1.82;;;14.60;82.90;;;;;;1876061;76;21011;-50
2021/09/22 02:57:01;;;;;;;6.78;2.67;;;14.70;83.10;;;;;;1874491;76;21124;-50
2021/09/22 02:59:30;;;;;;;4.33;2.20;;;14.70;83.10;;;;;;1876105;76;21059;-49
2021/09/22 03:02:01;;;;;;;4.05;2.33;;;14.70;83.00;;;;;;1876208;76;21469;-47
2021/09/22 03:04:31;;;;;;;2.58;1.70;;;14.70;83.30;;;;;;1876372;76;21097;-50
2021/09/22 03:07:00;;;;;;;4.08;2.12;;;14.70;83.20;;;;;;1876154;75;21083;-50
2021/09/22 03:09:30;;;;;;;7.05;2.25;;;14.80;83.50;;;;;;1876193;76;21063;-50
2021/09/22 03:11:59;;;;;;;7.65;2.77;;;14.80;83.70;;;;;;1876117;76;21106;-50
2021/09/22 03:14:30;;;;;;;11.85;2.17;;;14.80;83.90;;;;;;1876282;76;21039;-48
2021/09/22 03:17:00;;;;;;;4.95;1.80;;;14.80;83.90;;;;;;1876202;76;21046;-49
2021/09/22 03:19:29;;;;;;;6.22;1.85;;;14.90;83.60;;;;;;1876202;76;21035;-50
2021/09/22 03:21:59;;;;;;;2.52;2.00;;;14.80;83.60;;;;;;1876194;76;21035;-50
2021/09/22 03:24:31;;;;;;;9.88;2.00;;;14.80;83.70;;;;;;1871953;75;21030;-50
2021/09/22 03:27:00;;;;;;;2.30;1.70;;;14.90;84.10;;;;;;1876064;76;21035;-50
2021/09/22 03:29:30;;;;;;;2.42;1.90;;;14.90;84.30;;;;;;1876240;76;21437;-49
2021/09/22 03:32:00;;;;;;;5.15;1.65;;;14.90;84.20;;;;;;1876194;76;21039;-49
2021/09/22 03:34:29;;;;;;;3.05;1.95;;;14.90;84.20;;;;;;1876277;76;21096;-50
2021/09/22 03:36:59;;;;;;;4.60;1.85;;;14.90;84.20;;;;;;1876206;76;21027;-51
2021/09/22 03:39:28;;;;;;;1.75;1.65;;;14.90;84.20;;;;;;1876237;76;21098;-47
2021/09/22 03:41:57;;;;;;;2.08;1.55;;;15.00;84.40;;;;;;1876305;76;21075;-49
2021/09/22 03:44:27;;;;;;;1.82;1.32;;;14.90;84.10;;;;;;1876415;76;21035;-50
2021/09/22 03:46:58;;;;;;;8.58;2.10;;;14.90;84.20;;;;;;1876280;76;21050;-50
2021/09/22 03:49:28;;;;;;;4.90;1.60;;;14.90;84.40;;;;;;1876276;76;21108;-50
2021/09/22 03:51:59;;;;;;;2.52;1.72;;;14.90;84.00;;;;;;1875347;76;21062;-50
2021/09/22 03:54:28;;;;;;;3.00;1.70;;;15.00;83.50;;;;;;1876450;76;21042;-48
2021/09/22 03:56:59;;;;;;;1.75;1.30;;;14.90;83.30;;;;;;1876307;76;21109;-49
2021/09/22 03:59:28;;;;;;;2.00;1.40;;;14.80;83.10;;;;;;1876325;76;21031;-48
2021/09/22 04:01:58;;;;;;;6.70;1.57;;;14.80;83.00;;;;;;1876175;76;21035;-50
2021/09/22 04:04:27;;;;;;;4.72;1.82;;;14.80;83.00;;;;;;1876181;76;21085;-50
2021/09/22 04:06:58;;;;;;;4.70;2.75;;;14.70;83.10;;;;;;1876007;75;21214;-49
2021/09/22 04:09:29;;;;;;;4.47;2.08;;;14.70;83.30;;;;;;1875626;76;21564;-50
2021/09/22 04:11:58;;;;;;;6.65;1.90;;;14.70;83.30;;;;;;1875602;76;21104;-48
2021/09/22 04:14:28;;;;;;;4.60;1.60;;;14.70;83.40;;;;;;1875708;76;21120;-50
2021/09/22 04:16:57;;;;;;;3.55;2.10;;;14.70;83.20;;;;;;1875578;76;21098;-49
2021/09/22 04:19:27;;;;;;;1.50;1.30;;;14.70;83.40;;;;;;1875564;76;21149;-48
2021/09/22 04:21:56;;;;;;;4.80;2.87;;;14.70;83.10;;;;;;1875532;76;21082;-50
2021/09/22 04:24:27;;;;;;;2.77;1.55;;;14.70;83.30;;;;;;1875740;76;21117;-50
2021/09/22 04:26:57;;;;;;;3.75;1.98;;;14.70;83.30;;;;;;1875526;76;21134;-50
2021/09/22 04:29:28;;;;;;;3.37;1.50;;;14.70;83.50;;;;;;1872705;76;21058;-49
2021/09/22 04:32:11;;;;;;;2.17;1.30;;;14.80;83.70;;;;;;1812942;76;21050;-50
2021/09/22 04:35:01;;;;;;;2.65;1.47;;;14.80;83.80;;;;;;1875611;76;21031;-49
2021/09/22 04:37:48;;;;;;;1.50;1.20;;;14.90;83.70;;;;;;1875688;76;21096;-47
2021/09/22 04:40:36;;;;;;;5.62;1.77;;;14.90;83.30;;;;;;1875688;76;21091;-50
2021/09/22 04:43:22;;;;;;;4.67;1.65;;;14.90;83.70;;;;;;1875634;76;21047;-49
2021/09/22 04:46:02;;;;;;;1.55;1.42;;;15.00;83.70;;;;;;1782952;80;21069;-50
2021/09/22 04:48:49;;;;;;;4.05;1.35;;;15.00;83.30;;;;;;1875666;76;21046;-51
2021/09/22 04:51:36;;;;;;;1.82;1.45;;;15.00;82.40;;;;;;1875649;76;21090;-48
2021/09/22 04:54:20;;;;;;;3.08;1.45;;;14.90;82.20;;;;;;1813041;76;21054;-50
2021/09/22 04:57:07;;;;;;;2.30;1.50;;;15.00;82.20;;;;;;1875439;76;21043;-49
2021/09/22 04:59:55;;;;;;;5.08;1.70;;;15.00;82.30;;;;;;1875628;76;21067;-50
2021/09/22 05:02:42;;;;;;;3.87;1.40;;;15.00;82.60;;;;;;1875577;76;21148;-49
2021/09/22 05:05:29;;;;;;;1.50;1.30;;;15.00;81.90;;;;;;1875529;76;21073;-49
2021/09/22 05:08:09;;;;;;;4.15;1.47;;;15.10;81.50;;;;;;1794440;78;21078;-49
2021/09/22 05:10:57;;;;;;;1.62;1.37;;;15.10;81.30;;;;;;1876157;76;21547;-50
2021/09/22 05:13:44;;;;;;;2.98;1.50;;;15.10;80.70;;;;;;1876256;76;21051;-49
2021/09/22 05:16:32;;;;;;;4.67;1.60;;;15.10;80.30;;;;;;1876100;76;21047;-49
2021/09/22 05:19:22;;;;;;;3.17;1.50;;;15.10;79.90;;;;;;1876239;76;21076;-50
2021/09/22 05:22:09;;;;;;;2.08;1.60;;;15.10;80.20;;;;;;1876044;76;21063;-52
2021/09/22 05:24:58;;;;;;;3.05;1.80;;;15.20;79.50;;;;;;1876083;76;21055;-49
2021/09/22 05:27:46;;;;;;;2.12;1.47;;;15.30;79.50;;;;;;1876121;76;21086;-51
2021/09/22 05:30:34;;;;;;;2.77;1.47;;;15.30;78.50;;;;;;1876107;76;21113;-52
2021/09/22 05:33:21;;;;;;;3.70;1.55;;;15.40;77.50;;;;;;1876128;76;21043;-50
2021/09/22 05:36:08;;;;;;;3.02;1.35;;;15.40;77.90;;;;;;1876051;76;21116;-51
2021/09/22 05:38:55;;;;;;;6.55;2.42;;;15.40;76.20;;;;;;1876107;76;21430;-49
2021/09/22 05:41:43;;;;;;;3.70;1.67;;;15.40;76.20;;;;;;1876066;76;21063;-51
2021/09/22 05:44:30;;;;;;;9.38;2.67;;;15.30;76.50;;;;;;1876142;76;21055;-51
2021/09/22 05:47:17;;;;;;;4.50;1.95;;;15.30;76.50;;;;;;1876142;76;21034;-51
2021/09/22 05:50:05;;;;;;;5.85;2.35;;;15.30;77.20;;;;;;1876184;76;21513;-51
2021/09/22 05:52:52;;;;;;;6.50;2.00;;;15.30;77.80;;;;;;1876217;76;21042;-51
2021/09/22 05:55:39;;;;;;;8.68;1.80;;;15.30;77.20;;;;;;1876107;76;21496;-51
2021/09/22 05:58:26;;;;;;;1.40;1.30;;;15.30;76.80;;;;;;1876026;76;21113;-48
2021/09/22 06:01:06;;;;;;;3.05;1.80;;;15.30;76.60;;;;;;1849008;77;21163;-50
2021/09/22 06:03:53;;;;;;;2.40;2.02;;;15.40;77.40;;;;;;1876067;76;21050;-51
2021/09/22 06:06:37;;;;;;;6.35;2.33;;;15.40;77.20;;;;;;1871712;76;21097;-50
2021/09/22 06:09:23;;;;;;;8.03;1.98;;;15.50;76.50;;;;;;1863077;76;21077;-48
2021/09/22 06:11:58;;;;;;;2.65;2.02;;;15.60;76.70;;;;;;1883970;75;21090;-47
2021/09/22 06:14:27;;;;;;;3.52;2.17;;;15.60;75.80;;;;;;1888215;76;21112;-49
2021/09/22 06:16:57;;;;;;;3.60;2.10;;;15.70;76.80;;;;;;1888057;76;21078;-51
2021/09/22 06:19:28;;;;;;;1.70;1.45;;;15.80;76.20;;;;;;1887777;76;21164;-48
2021/09/22 06:21:58;;;;;;;6.42;2.92;;;15.90;76.20;;;;;;1888042;76;21042;-51
2021/09/22 06:24:29;;;;;;;6.50;3.02;;;16.00;75.90;;;;;;1888093;76;21051;-48
2021/09/22 06:27:15;;;;;;;4.00;3.05;;;16.10;74.40;;;;;;1887800;76;21079;-52
2021/09/22 06:29:46;;;;;;;3.85;2.33;;;16.10;74.30;;;;;;1887853;75;21164;-51
2021/09/22 06:32:15;;;;;;;1.52;1.40;;;16.20;73.70;;;;;;1888116;76;21002;-51
2021/09/22 06:35:02;;;;;;;2.67;1.32;;;16.20;72.50;;;;;;1888092;76;21115;-48
2021/09/22 06:37:39;;;;;;;5.08;1.50;;;16.30;72.80;;;;;;1886181;76;21075;-50
2021/09/22 06:40:11;;;;;;;3.40;1.40;;;16.30;72.50;;;;;;1887820;76;21149;-51
2021/09/22 06:42:41;;;;;;;2.77;1.50;;;16.40;73.50;;;;;;1851198;76;21031;-50
2021/09/22 06:45:10;;;;;;;2.30;1.37;;;16.40;71.50;;;;;;1888049;76;21038;-48
2021/09/22 06:47:40;;;;;;;4.67;1.87;;;16.40;71.30;;;;;;1888104;76;21043;-50
2021/09/22 06:50:10;;;;;;;3.33;1.90;;;16.40;71.60;;;;;;1888116;76;21089;-50
2021/09/22 06:52:39;;;;;;;2.33;1.60;;;16.40;71.90;;;;;;1888249;76;21038;-50
2021/09/22 06:55:10;;;;;;;3.70;1.90;;;16.40;72.30;;;;;;1888059;76;21108;-47
2021/09/22 06:57:40;;;;;;;3.60;2.20;;;16.50;72.60;;;;;;1888060;76;21171;-47
2021/09/22 07:00:09;;;;;;;4.90;1.75;;;16.60;71.30;;;;;;1888114;76;21104;-48
2021/09/22 07:02:39;;;;;;;4.40;2.60;;;16.60;71.60;;;;;;1888043;76;21043;-51
2021/09/22 07:05:10;;;;;;;4.17;2.40;;;16.60;70.60;;;;;;1888125;76;21018;-51
2021/09/22 07:07:39;;;;;;;12.68;2.40;;;16.50;71.10;;;;;;1888122;76;21035;-51
2021/09/22 07:10:09;;;;;;;5.42;2.30;;;16.60;71.20;;;;;;1877522;76;21138;-48
2021/09/22 07:12:39;;;;;;;4.45;1.95;;;16.60;71.40;;;;;;1875643;76;21093;-50
2021/09/22 07:15:09;;;;;;;4.95;2.40;;;16.70;71.50;;;;;;1875648;76;21067;-49
2021/09/22 07:17:38;;;;;;;4.42;1.77;;;16.80;71.20;;;;;;1875675;76;21031;-51
2021/09/22 07:20:09;;;;;;;3.80;1.67;;;16.90;71.40;;;;;;1875647;76;21043;-47
2021/09/22 07:22:38;;;;;;;2.90;1.70;;;16.90;70.10;;;;;;1875607;76;21055;-51
2021/09/22 07:25:09;;;;;;;2.83;1.47;;;16.90;69.00;;;;;;1875740;76;21106;-47
2021/09/22 07:27:39;;;;;;;3.47;1.90;;;16.80;68.00;;;;;;1875715;76;21055;-49
2021/09/22 07:30:09;;;;;;;1.77;1.55;;;16.80;68.90;;;;;;1875587;76;21018;-48
2021/09/22 07:32:39;;;;;;;3.67;1.75;;;16.80;69.50;;;;;;1875551;76;21019;-50
2021/09/22 07:35:09;;;;;;;3.77;2.05;;;16.80;68.30;;;;;;1875564;76;21051;-49
2021/09/22 07:37:38;;;;;;;3.52;2.02;;;16.80;68.70;;;;;;1875603;76;21027;-50
2021/09/22 07:40:09;;;;;;;4.67;1.80;;;16.80;68.00;;;;;;1875547;76;21034;-49
2021/09/22 07:42:42;;;;;;;3.58;1.87;;;16.80;68.20;;;;;;1875705;76;21103;-49
2021/09/22 07:45:12;;;;;;;2.65;2.00;;;16.80;67.20;;;;;;1875603;76;21125;-49
2021/09/22 07:47:42;;;;;;;4.20;1.90;;;16.80;68.20;;;;;;1875664;76;21071;-51
2021/09/22 07:50:12;;;;;;;4.55;2.10;;;16.80;68.20;;;;;;1875652;76;21101;-50
2021/09/22 07:52:42;;;;;;;6.92;3.00;;;16.80;68.00;;;;;;1875584;76;21035;-51
2021/09/22 07:55:12;;;;;;;12.00;2.80;;;16.90;68.60;;;;;;1875621;76;21035;-51
2021/09/22 07:57:41;;;;;;;6.12;3.42;;;16.90;68.20;;;;;;1875691;76;21035;-49
2021/09/22 08:00:12;;;;;;;9.03;5.15;;;16.90;68.50;;;;;;1875516;76;21038;-50
2021/09/22 08:02:41;;;;;;;6.17;3.37;;;17.00;68.50;;;;;;1875541;76;21035;-48
2021/09/22 08:05:11;;;;;;;2.80;2.40;;;17.00;68.30;;;;;;1875615;76;21043;-50
2021/09/22 08:07:41;;;;;;;5.12;2.95;;;17.00;68.20;;;;;;1875618;76;21031;-50
2021/09/22 08:10:11;;;;;;;3.58;2.20;;;17.10;68.30;;;;;;1876005;76;21134;-48
2021/09/22 08:12:40;;;;;;;2.40;1.72;;;17.10;67.90;;;;;;1876178;76;21085;-49
2021/09/22 08:15:10;;;;;;;3.37;1.60;;;17.20;66.50;;;;;;1875997;76;21097;-50
2021/09/22 08:17:40;;;;;;;2.95;1.45;;;17.20;66.90;;;;;;1876065;76;21015;-50
2021/09/22 08:20:10;;;;;;;3.33;1.62;;;17.20;66.90;;;;;;1876169;76;21059;-49
2021/09/22 08:22:40;;;;;;;9.33;2.20;;;17.20;67.60;;;;;;1876150;76;21019;-50
2021/09/22 08:25:10;;;;;;;2.00;1.62;;;17.30;66.30;;;;;;1876207;76;21035;-51
2021/09/22 08:27:40;;;;;;;7.33;3.75;;;17.30;67.20;;;;;;1876158;76;21035;-51
2021/09/22 08:30:10;;;;;;;10.78;5.33;;;17.30;67.40;;;;;;1876151;76;21100;-48
2021/09/22 08:32:40;;;;;;;3.12;1.85;;;17.40;66.80;;;;;;1876206;76;21109;-50
2021/09/22 08:35:10;;;;;;;4.90;2.22;;;17.40;65.80;;;;;;1876143;76;21035;-48
2021/09/22 08:37:40;;;;;;;4.85;1.50;;;17.40;66.00;;;;;;1876190;76;21039;-47
2021/09/22 08:40:10;;;;;;;2.40;1.80;;;17.30;65.50;;;;;;1876190;76;21085;-50
2021/09/22 08:42:40;;;;;;;6.17;1.70;;;17.30;65.30;;;;;;1876220;76;21088;-49
2021/09/22 08:45:11;;;;;;;2.15;1.52;;;17.30;66.10;;;;;;1876250;76;21109;-48
2021/09/22 08:47:47;;;;;;;2.70;1.65;;;17.30;65.50;;;;;;1876207;76;21035;-48
2021/09/22 08:50:19;;;;;;;5.40;1.80;;;17.30;65.90;;;;;;1876257;76;21144;-49
2021/09/22 08:52:48;;;;;;;4.15;2.08;;;17.40;66.50;;;;;;1876352;76;21555;-50
2021/09/22 08:55:18;;;;;;;3.00;1.47;;;17.50;66.60;;;;;;1876239;76;21040;-51
2021/09/22 08:57:47;;;;;;;2.83;1.65;;;17.60;66.40;;;;;;1876137;76;21038;-50
2021/09/22 09:00:17;;;;;;;4.95;1.92;;;17.70;66.40;;;;;;1876281;76;21080;-49
2021/09/22 09:02:48;;;;;;;4.08;1.37;;;17.80;65.60;;;;;;1876089;76;21148;-48
2021/09/22 09:05:19;;;;;;;2.67;2.10;;;17.80;62.70;;;;;;1876175;76;21082;-48
2021/09/22 09:07:51;;;;;;;3.55;1.70;;;17.90;64.10;;;;;;1876090;76;21088;-50
2021/09/22 09:10:23;;;;;;;3.00;1.80;;;17.90;63.30;;;;;;1875975;76;21498;-49
2021/09/22 09:13:01;;;;;;;4.35;1.80;;;18.00;63.90;;;;;;1791976;80;21065;-51
2021/09/22 09:15:39;;;;;;;2.20;1.65;;;18.10;64.30;;;;;;1875744;76;21030;-49
2021/09/22 09:18:18;;;;;;;5.50;1.40;;;18.10;63.70;;;;;;1874950;76;21484;-50
2021/09/22 09:20:49;;;;;;;2.30;2.10;;;18.10;63.70;;;;;;1875637;76;21559;-51
2021/09/22 09:23:20;;;;;;;3.00;1.70;;;18.00;62.60;;;;;;1875543;76;21055;-51
2021/09/22 09:26:03;;;;;;;1.70;1.60;;;17.90;62.20;;;;;;1875538;76;21161;-51
2021/09/22 09:28:39;;;;;;;2.15;1.47;;;17.80;62.30;;;;;;1875617;76;21152;-50
2021/09/22 09:31:13;;;;;;;3.90;1.67;;;17.60;62.00;;;;;;1875524;76;21085;-48
2021/09/22 09:33:45;;;;;;;4.33;1.97;;;17.50;60.90;;;;;;1875975;76;21039;-49
2021/09/22 09:36:19;;;;;;;2.70;1.70;;;17.40;61.20;;;;;;1875517;76;21011;-50
2021/09/22 09:39:06;;;;;;;2.60;2.12;;;17.30;62.10;;;;;;1875721;76;21070;-51
2021/09/22 09:41:37;;;;;;;2.22;2.02;;;17.20;62.50;;;;;;1875651;76;21457;-48
2021/09/22 09:44:09;;;;;;;3.25;1.70;;;17.10;63.30;;;;;;1875796;76;21516;-50
2021/09/22 09:46:40;;;;;;;2.67;2.02;;;17.00;64.00;;;;;;1875464;76;21043;-51
2021/09/22 09:49:12;;;;;;;6.15;2.42;;;17.00;64.20;;;;;;1875651;76;21038;-49
2021/09/22 09:51:46;;;;;;;2.75;2.15;;;17.00;64.40;;;;;;1875542;76;21035;-51
2021/09/22 09:54:18;;;;;;;3.02;1.80;;;17.00;64.60;;;;;;1874663;76;21556;-50
2021/09/22 09:56:49;;;;;;;3.72;2.33;;;17.00;64.50;;;;;;1789946;80;21160;-51
2021/09/22 09:59:20;;;;;;;5.92;2.50;;;17.10;64.50;;;;;;1875579;76;21029;-51
2021/09/22 10:01:55;;;;;;;4.50;2.40;;;17.10;64.30;;;;;;1875540;76;21034;-50
2021/09/22 10:04:26;;;;;;;5.20;2.58;;;17.20;64.60;;;;;;1875688;76;21043;-48
2021/09/22 10:06:55;;;;;;;2.17;1.82;;;17.30;64.70;;;;;;1875452;76;21018;-50
2021/09/22 10:09:24;;;;;;;3.67;2.70;;;17.30;64.00;;;;;;1875622;76;21547;-48
2021/09/22 10:11:53;;;;;;;3.27;2.72;;;17.20;63.20;;;;;;1875615;75;21121;-49
2021/09/22 10:14:23;;;;;;;6.80;2.55;;;17.10;64.30;;;;;;1875623;76;21034;-50
2021/09/22 10:16:53;;;;;;;3.45;2.60;;;17.00;64.30;;;;;;1875385;76;21096;-51
2021/09/22 10:19:22;;;;;;;3.75;2.80;;;16.90;65.00;;;;;;1875430;76;21101;-50
2021/09/22 10:21:52;;;;;;;3.17;2.55;;;16.90;65.50;;;;;;1875373;76;21027;-51
2021/09/22 10:24:23;;;;;;;4.42;2.47;;;16.80;65.70;;;;;;1875476;76;21011;-51
2021/09/22 10:26:53;;;;;;;7.40;4.33;;;16.80;66.10;;;;;;1875611;76;21062;-49
2021/09/22 10:29:36;;;;;;;4.17;3.40;;;16.80;66.60;;;;;;1875599;76;21038;-50
2021/09/22 10:32:01;;;;;;;6.12;2.87;;;16.80;66.60;;;;;;1874749;76;21469;-50
2021/09/22 10:34:35;;;;;;;4.90;3.35;;;16.70;66.60;;;;;;1875490;76;21043;-50
2021/09/22 10:37:12;;;;;;;3.47;2.63;;;16.70;67.00;;;;;;1875911;76;21097;-51
2021/09/22 10:39:44;;;;;;;3.60;2.72;;;16.70;66.90;;;;;;1860886;76;21047;-50
2021/09/22 10:42:29;;;;;;;4.70;3.08;;;16.70;67.00;;;;;;1875683;76;21136;-47
2021/09/22 10:45:19;;;;;;;4.75;3.22;;;16.70;67.60;;;;;;1867035;76;21067;-47
2021/09/22 10:47:50;;;;;;;3.25;2.70;;;16.80;67.50;;;;;;1875601;76;21109;-51
2021/09/22 10:50:41;;;;;;;5.20;3.10;;;16.80;67.10;;;;;;1875625;76;21031;-49
2021/09/22 10:53:35;;;;;;;3.80;2.72;;;16.80;67.00;;;;;;1875499;76;21060;-49
2021/09/22 10:56:13;;;;;;;3.45;2.40;;;16.90;67.40;;;;;;1836716;76;21007;-50
2021/09/22 10:58:56;;;;;;;3.98;2.90;;;16.90;67.20;;;;;;1875530;76;21548;-48
2021/09/22 11:01:34;;;;;;;3.98;3.02;;;16.90;68.20;;;;;;1875487;76;21106;-49
2021/09/22 11:04:05;;;;;;;4.28;2.80;;;17.00;67.50;;;;;;1855844;76;21129;-50
2021/09/22 11:06:49;;;;;;;5.10;3.15;;;17.00;67.50;;;;;;1875633;76;21051;-48
2021/09/22 11:09:28;;;;;;;7.92;3.20;;;17.10;67.20;;;;;;1875527;76;21066;-50
2021/09/22 11:12:00;;;;;;;3.15;2.40;;;17.00;67.60;;;;;;1875665;75;21094;-50
2021/09/22 11:14:32;;;;;;;3.27;2.50;;;17.10;67.70;;;;;;1875521;76;21086;-50
2021/09/22 11:17:13;;;;;;;3.92;2.15;;;17.20;67.40;;;;;;1875393;76;21116;-50
2021/09/22 11:19:44;;;;;;;3.33;2.58;;;17.20;67.10;;;;;;1875384;76;21027;-47
2021/09/22 11:22:19;;;;;;;4.40;2.45;;;17.20;67.20;;;;;;1875410;76;21039;-50
2021/09/22 11:24:53;;;;;;;4.72;2.83;;;17.20;67.20;;;;;;1874676;76;21039;-50
2021/09/22 11:27:22;;;;;;;5.70;2.30;;;17.20;66.10;;;;;;1875291;76;21031;-51
2021/09/22 11:29:54;;;;;;;3.67;2.80;;;17.20;66.40;;;;;;1875394;76;21067;-50
2021/09/22 11:32:44;;;;;;;3.10;2.22;;;17.30;66.60;;;;;;1875443;76;21101;-49
2021/09/22 11:35:16;;;;;;;3.30;2.45;;;17.30;66.80;;;;;;1875316;76;21043;-49
2021/09/22 11:37:53;;;;;;;3.55;2.62;;;17.30;66.00;;;;;;1874598;76;21142;-50
2021/09/22 11:40:26;;;;;;;3.87;2.70;;;17.40;66.40;;;;;;1875333;76;21035;-51
2021/09/22 11:42:58;;;;;;;3.15;2.40;;;17.50;65.70;;;;;;1875439;76;21542;-50
2021/09/22 11:45:30;;;;;;;3.27;2.67;;;17.50;65.80;;;;;;1875436;76;21031;-51
2021/09/22 11:47:59;;;;;;;3.02;2.30;;;17.60;65.00;;;;;;1875536;76;21524;-49
2021/09/22 11:50:38;;;;;;;5.22;2.90;;;17.60;65.20;;;;;;1875442;76;21160;-51
2021/09/22 11:53:09;;;;;;;4.10;2.15;;;17.60;65.20;;;;;;1874006;76;21054;-51
2021/09/22 11:55:39;;;;;;;2.50;2.00;;;17.60;64.10;;;;;;1874406;76;21543;-49
2021/09/22 11:58:11;;;;;;;2.87;2.50;;;17.60;64.40;;;;;;1875512;76;21040;-51
2021/09/22 12:00:41;;;;;;;3.12;2.50;;;17.60;65.40;;;;;;1875548;76;21074;-52
2021/09/22 12:03:13;;;;;;;7.03;4.03;;;17.60;64.90;;;;;;1875538;76;21082;-52
2021/09/22 12:05:43;;;;;;;4.37;2.92;;;17.60;65.10;;;;;;1875361;76;21085;-52
2021/09/22 12:08:13;;;;;;;5.22;2.83;;;17.50;65.00;;;;;;1875466;76;21059;-52
2021/09/22 12:10:44;;;;;;;3.12;1.98;;;17.50;65.20;;;;;;1875697;76;21054;-50
2021/09/22 12:13:13;;;;;;;3.15;2.25;;;17.50;65.30;;;;;;1875499;76;21124;-52
2021/09/22 12:15:43;;;;;;;2.52;2.05;;;17.50;64.60;;;;;;1875594;76;21097;-52
2021/09/22 12:18:14;;;;;;;3.83;2.20;;;17.50;64.00;;;;;;1875678;76;21039;-51
2021/09/22 12:20:43;;;;;;;3.80;2.08;;;17.40;64.70;;;;;;1875594;76;20999;-50
2021/09/22 12:23:13;;;;;;;3.10;2.70;;;17.40;65.10;;;;;;1875638;76;21039;-52
2021/09/22 12:25:42;;;;;;;3.45;2.45;;;17.40;64.10;;;;;;1875640;76;21101;-52
2021/09/22 12:28:23;;;;;;;5.00;2.20;;;17.40;64.50;;;;;;1875468;76;21113;-51
2021/09/22 12:30:50;;;;;;;2.25;1.95;;;17.40;65.20;;;;;;1875130;76;21555;-49
2021/09/22 12:33:21;;;;;;;3.45;1.90;;;17.40;64.90;;;;;;1875449;76;21116;-51
2021/09/22 12:35:51;;;;;;;4.80;2.12;;;17.40;64.50;;;;;;1875427;76;21051;-52
2021/09/22 12:38:21;;;;;;;3.15;2.10;;;17.40;64.40;;;;;;1875551;76;21039;-50
2021/09/22 12:40:52;;;;;;;1.92;1.70;;;17.40;64.60;;;;;;1875670;76;21180;-53
2021/09/22 12:43:27;;;;;;;4.95;1.80;;;17.40;64.50;;;;;;1875573;76;21023;-50
2021/09/22 12:46:14;;;;;;;4.00;2.10;;;17.40;64.20;;;;;;1875994;76;21162;-51
2021/09/22 12:48:43;;;;;;;3.55;2.08;;;17.40;64.20;;;;;;1875732;76;21168;-53
2021/09/22 12:51:32;;;;;;;2.55;1.75;;;17.50;63.90;;;;;;1875759;76;21464;-52
2021/09/22 12:53:55;;;;;;;3.70;2.20;;;17.50;64.00;;;;;;1873837;76;21035;-51
2021/09/22 12:56:26;;;;;;;4.28;2.40;;;17.50;64.20;;;;;;1873486;76;21434;-51
2021/09/22 12:58:55;;;;;;;3.12;2.33;;;17.60;64.80;;;;;;1875612;76;21039;-51
2021/09/22 13:01:27;;;;;;;3.05;1.95;;;17.60;64.00;;;;;;1875682;76;21489;-51
2021/09/22 13:03:58;;;;;;;3.15;2.45;;;17.60;63.50;;;;;;1873973;76;21505;-52
2021/09/22 13:06:30;;;;;;;9.18;5.67;;;17.50;64.20;;;;;;1875657;76;21047;-50
2021/09/22 13:09:05;;;;;;;4.75;3.17;;;17.40;64.40;;;;;;1875571;76;21477;-53
2021/09/22 13:11:36;;;;;;;3.37;2.10;;;17.40;64.20;;;;;;1875574;76;21039;-50
2021/09/22 13:14:17;;;;;;;5.78;3.10;;;17.40;64.60;;;;;;1876274;76;21027;-51
2021/09/22 13:16:54;;;;;;;2.80;2.52;;;17.30;64.40;;;;;;1876126;76;21113;-52